Time;durP1;ratioP1;P1;durP2;ratioP2;P2;SDS_P1;SDS_P2;PMS_P1;PMS_P2;Temp;Humidity;BMP_temperature;BMP_pressure;BME280_temperature;BME280_humidity;BME280_pressure;Samples;Min_cycle;Max_cycle;Signal;HPM_P1;HPM_P2
2022/02/03 06:47:28;;;;;;;8.00;4.13;;;;;;;-0.33;81.99;100620.63;4984697;28;106064;-75
2022/02/03 06:50:05;;;;;;;12.70;3.75;;;;;;;-0.23;82.52;100627.03;4985756;28;105999;-73
2022/02/03 06:58:01;;;;;;;8.25;3.45;;;;;;;0.02;82.57;100628.19;4965703;28;105847;-74
2022/02/03 07:00:32;;;;;;;10.57;4.32;;;;;;;0.12;82.46;100625.84;4980808;28;106522;-73
2022/02/03 07:02:59;;;;;;;13.48;4.10;;;;;;;0.21;82.78;100625.31;4965034;28;106291;-73
2022/02/03 07:05:25;;;;;;;6.82;3.88;;;;;;;0.32;82.94;100622.88;4965032;28;106137;-75
2022/02/03 07:07:50;;;;;;;15.27;5.82;;;;;;;0.40;82.75;100613.72;4953103;28;105904;-74
2022/02/03 07:10:16;;;;;;;14.25;5.20;;;;;;;0.45;82.59;100609.88;4946095;28;105917;-74
2022/02/03 07:12:42;;;;;;;17.13;5.57;;;;;;;0.49;82.55;100618.38;4946243;28;106121;-75
2022/02/03 07:15:09;;;;;;;17.95;6.00;;;;;;;0.52;82.34;100607.72;4945154;28;105904;-74
2022/02/03 07:17:35;;;;;;;15.18;6.20;;;;;;;0.54;82.33;100611.06;4945218;28;105995;-75
2022/02/03 07:20:05;;;;;;;15.77;5.50;;;;;;;0.60;82.25;100613.34;4945446;28;106046;-74
2022/02/03 07:22:31;;;;;;;16.90;5.85;;;;;;;0.66;82.49;100615.56;4945155;28;105833;-75
2022/02/03 07:24:57;;;;;;;11.30;5.03;;;;;;;0.74;82.35;100616.84;4944886;28;106500;-75
2022/02/03 07:27:23;;;;;;;12.70;5.80;;;;;;;0.77;82.28;100617.50;4945265;28;106398;-76
2022/02/03 07:29:50;;;;;;;10.90;4.88;;;;;;;0.86;82.17;100626.56;4945652;28;106009;-76
2022/02/03 07:32:16;;;;;;;13.20;5.85;;;;;;;0.93;82.29;100613.91;4945050;28;106192;-76
2022/02/03 07:34:41;;;;;;;12.80;5.70;;;;;;;0.99;82.34;100616.16;4944863;28;106867;-74
2022/02/03 07:37:07;;;;;;;14.48;5.55;;;;;;;1.13;82.67;100617.88;4946310;28;105907;-74
2022/02/03 07:39:33;;;;;;;38.13;18.05;;;;;;;1.24;82.30;100610.16;4945859;28;106715;-76
2022/02/03 07:42:00;;;;;;;18.83;5.25;;;;;;;1.35;82.39;100605.06;4944906;28;106289;-74
2022/02/03 07:44:25;;;;;;;16.98;5.13;;;;;;;1.43;82.18;100606.34;4944371;28;106862;-75
2022/02/03 07:46:51;;;;;;;13.63;5.20;;;;;;;1.50;81.91;100604.97;4944868;28;106266;-74
2022/02/03 07:49:17;;;;;;;10.25;3.80;;;;;;;1.58;81.78;100600.06;4945536;28;105900;-73
2022/02/03 07:51:42;;;;;;;16.98;4.55;;;;;;;1.73;81.92;100598.19;4945717;28;105885;-74
2022/02/03 07:54:09;;;;;;;13.73;5.88;;;;;;;1.89;81.90;100587.50;4944879;28;106054;-81
2022/02/03 07:56:35;;;;;;;11.77;5.35;;;;;;;2.01;82.04;100588.47;4943064;28;106034;-75
2022/02/03 07:59:00;;;;;;;14.95;6.22;;;;;;;2.06;81.68;100585.50;4932208;28;106079;-76
2022/02/03 08:01:26;;;;;;;14.68;5.78;;;;;;;2.09;81.56;100586.13;4931129;28;110440;-76
2022/02/03 08:03:52;;;;;;;10.65;4.65;;;;;;;2.19;81.16;100588.97;4931755;28;105786;-74
2022/02/03 08:06:23;;;;;;;10.02;4.68;;;;;;;2.27;81.22;100584.03;4946487;28;107156;-77
2022/02/03 08:08:53;;;;;;;14.55;4.82;;;;;;;2.43;81.61;100568.00;4932561;28;105901;-76
2022/02/03 08:11:28;;;;;;;20.13;5.80;;;;;;;2.63;81.22;100568.38;4931909;28;106668;-74
2022/02/03 08:14:06;;;;;;;11.27;4.07;;;;;;;3.05;81.93;100564.44;4931615;28;106367;-77
2022/02/03 08:16:42;;;;;;;14.52;4.70;;;;;;;3.26;80.89;100563.78;4931166;28;106416;-76
2022/02/03 08:19:15;;;;;;;8.20;3.15;;;;;;;3.34;79.54;100550.91;4931816;28;105973;-74
2022/02/03 08:21:45;;;;;;;12.75;4.65;;;;;;;3.33;78.96;100546.59;4931554;28;106447;-76
2022/02/03 08:24:23;;;;;;;9.25;3.67;;;;;;;3.32;79.40;100541.44;4931601;28;105960;-76
2022/02/03 08:27:01;;;;;;;8.50;3.92;;;;;;;3.52;79.41;100540.78;4931259;28;106208;-73
2022/02/03 08:32:00;;;;;;;13.50;5.13;;;;;;;3.61;78.14;100533.97;4931719;28;106301;-74
2022/02/03 08:34:43;;;;;;;10.23;4.45;;;;;;;3.70;78.47;100528.03;4931065;28;105998;-73
2022/02/03 08:37:09;;;;;;;11.13;5.00;;;;;;;4.24;79.04;100528.28;4931153;28;106169;-74
2022/02/03 08:39:43;;;;;;;17.02;5.63;;;;;;;5.39;80.19;100526.00;4932018;28;106125;-77
2022/02/03 08:42:08;;;;;;;12.63;5.63;;;;;;;6.62;77.70;100519.06;4931180;28;106787;-75
2022/02/03 08:44:34;;;;;;;11.90;5.65;;;;;;;7.25;76.87;100515.22;4931404;28;106167;-74
2022/02/03 08:46:59;;;;;;;9.93;4.25;;;;;;;7.55;75.07;100521.31;4930684;28;112361;-74
2022/02/03 08:49:24;;;;;;;21.67;5.43;;;;;;;7.30;72.15;100518.28;4930496;28;106125;-74
2022/02/03 08:51:51;;;;;;;16.48;5.25;;;;;;;7.45;73.26;100513.38;4930680;28;106441;-75
2022/02/03 08:54:16;;;;;;;12.43;5.20;;;;;;;7.83;72.31;100516.06;4930324;28;107902;-74
2022/02/03 08:57:02;;;;;;;18.50;5.75;;;;;;;9.25;73.51;100513.03;4929982;28;106107;-76
2022/02/03 09:32:10;;;;;;;15.32;6.47;;;;;;;24.16;37.14;100486.16;4931500;28;105870;-74
2022/02/03 09:34:36;;;;;;;12.98;4.75;;;;;;;24.05;36.59;100487.94;4930781;28;105789;-75
2022/02/03 09:39:08;;;;;;;10.93;4.32;;;;;;;24.77;35.62;100496.94;4929074;28;106549;-77
2022/02/03 09:57:55;;;;;;;11.68;3.55;;;;;;;29.18;23.66;100465.78;4925870;28;106518;-75
2022/02/03 10:00:31;;;;;;;10.23;3.22;;;;;;;29.76;24.16;100472.34;4927880;28;106378;-69
2022/02/03 10:03:10;;;;;;;11.55;4.18;;;;;;;29.74;21.39;100466.34;4928621;28;106951;-72
2022/02/03 10:05:40;;;;;;;8.48;3.08;;;;;;;29.40;20.44;100467.25;4929633;28;105995;-69
2022/02/03 10:08:12;;;;;;;10.60;3.55;;;;;;;29.06;20.82;100468.09;4928560;28;106438;-69
2022/02/03 10:10:38;;;;;;;10.00;3.53;;;;;;;29.41;20.91;100463.41;4928284;28;106334;-71
2022/02/03 10:13:18;;;;;;;8.77;3.50;;;;;;;30.01;20.22;100463.00;4928320;28;106085;-76
2022/02/03 10:15:45;;;;;;;10.15;4.00;;;;;;;30.70;19.79;100449.69;4929169;28;106249;-73
2022/02/03 10:18:20;;;;;;;6.70;2.80;;;;;;;30.54;19.68;100446.34;4928514;28;106158;-73
2022/02/03 10:20:49;;;;;;;11.32;5.00;;;;;;;31.00;19.30;100442.03;4927914;28;106739;-74
2022/02/03 10:23:20;;;;;;;8.43;3.30;;;;;;;31.90;18.65;100435.41;4926552;28;107827;-72
2022/02/03 10:25:50;;;;;;;9.50;3.70;;;;;;;32.20;17.27;100438.66;4927519;28;106633;-72
2022/02/03 10:28:16;;;;;;;8.45;3.75;;;;;;;32.06;17.13;100433.94;4922852;28;106277;-73
2022/02/03 10:30:51;;;;;;;11.55;2.80;;;;;;;32.22;17.12;100434.47;4929209;28;105810;-71
2022/02/03 10:33:17;;;;;;;5.63;3.00;;;;;;;32.71;16.34;100429.22;4929317;28;105886;-75
2022/02/03 10:35:57;;;;;;;9.20;3.00;;;;;;;32.54;15.95;100421.56;4930361;28;106741;-71
2022/02/03 10:52:17;;;;;;;10.15;3.35;;;;;;;30.35;16.04;100420.78;4929295;28;106448;-71
2022/02/03 10:57:30;;;;;;;12.07;5.40;;;;;;;31.38;15.63;100410.84;4927133;28;105864;-71
2022/02/03 11:08:00;;;;;;;10.07;4.35;;;;;;;32.67;14.94;100408.88;4928084;28;105927;-71
2022/02/03 11:10:49;;;;;;;9.07;3.72;;;;;;;32.23;14.83;100402.19;4928471;28;106257;-71
2022/02/03 11:13:14;;;;;;;7.47;3.38;;;;;;;31.86;14.82;100406.84;4928788;28;106591;-70
2022/02/03 11:15:41;;;;;;;6.75;3.08;;;;;;;31.60;14.70;100399.13;4927943;28;105884;-70
2022/02/03 11:18:08;;;;;;;10.43;3.38;;;;;;;30.79;15.03;100394.81;4929373;28;105878;-70
2022/02/03 11:20:39;;;;;;;7.22;3.55;;;;;;;31.10;14.93;100380.56;4928915;28;106237;-71
2022/02/03 11:23:22;;;;;;;12.75;4.13;;;;;;;31.28;15.01;100386.28;4928368;28;105921;-70
2022/02/03 11:41:37;;;;;;;9.07;2.78;;;;;;;32.68;13.69;100374.66;4932049;28;105941;-71
2022/02/03 11:47:24;;;;;;;6.10;2.53;;;;;;;32.60;13.75;100372.63;4930890;28;106128;-73
2022/02/03 11:55:48;;;;;;;7.95;2.85;;;;;;;32.56;13.53;100360.59;4929871;28;106526;-70
2022/02/03 12:15:31;;;;;;;;;;;;;;;34.65;12.01;100331.03;4944535;28;105985;-71
2022/02/03 12:21:01;;;;;;;6.97;3.13;;;;;;;34.63;12.39;100320.31;4931678;28;106061;-71
2022/02/03 12:23:59;;;;;;;7.72;2.70;;;;;;;33.68;12.94;100313.66;4928037;28;106140;-71
2022/02/03 12:26:49;;;;;;;5.63;2.42;;;;;;;33.19;13.40;100316.47;4934904;28;105996;-70
2022/02/03 12:29:23;;;;;;;10.93;3.10;;;;;;;33.44;12.94;100314.94;4922943;28;105996;-72
2022/02/03 12:40:54;;;;;;;9.75;2.58;;;;;;;33.27;13.01;100293.63;4921674;28;106596;-71
2022/02/03 12:45:46;;;;;;;5.38;2.20;;;;;;;33.80;12.23;100277.97;4924807;28;106214;-71
2022/02/03 12:48:12;;;;;;;6.32;2.08;;;;;;;33.73;11.51;100280.38;4924003;28;106857;-70
2022/02/03 12:50:40;;;;;;;5.35;2.55;;;;;;;33.98;11.91;100283.47;4925409;28;106187;-70
2022/02/03 12:53:07;;;;;;;9.85;2.40;;;;;;;33.17;11.56;100275.38;4927248;28;106556;-70
2022/02/03 12:55:34;;;;;;;8.10;2.53;;;;;;;32.98;11.81;100266.56;4947549;28;106199;-71
2022/02/03 12:58:16;;;;;;;5.28;2.50;;;;;;;32.75;12.05;100265.84;4924424;28;106307;-72
2022/02/03 13:01:30;;;;;;;6.82;2.50;;;;;;;32.61;11.76;100263.97;4928458;28;106734;-71
2022/02/03 13:03:43;;;;;;;6.38;2.53;;;;;;;31.62;12.65;100263.91;4934304;28;106833;-71
2022/02/03 13:06:15;;;;;;;6.93;2.40;;;;;;;30.46;13.08;100256.59;4935996;28;105934;-71
2022/02/03 13:08:45;;;;;;;4.50;2.20;;;;;;;29.89;13.64;100249.25;4946528;28;106139;-72
2022/02/03 13:16:23;;;;;;;5.68;2.47;;;;;;;30.02;13.88;100259.47;4926301;28;106184;-72
2022/02/03 13:19:05;;;;;;;7.72;2.67;;;;;;;30.00;13.44;100247.16;4918898;28;106090;-71
2022/02/03 13:26:57;;;;;;;6.25;2.38;;;;;;;30.93;13.08;100240.03;4920185;28;106311;-72
2022/02/03 13:29:32;;;;;;;4.35;1.65;;;;;;;27.73;15.03;100241.38;4920634;28;105871;-73
2022/02/03 13:32:08;;;;;;;6.35;1.60;;;;;;;25.74;15.57;100241.50;4920065;28;107454;-72
2022/02/03 13:34:53;;;;;;;5.55;2.30;;;;;;;25.44;15.84;100240.38;4929978;28;105809;-72
2022/02/03 13:37:27;;;;;;;5.72;2.13;;;;;;;23.65;17.00;100242.38;4930635;28;106528;-72
2022/02/03 13:40:10;;;;;;;6.43;2.10;;;;;;;19.89;20.53;100246.31;4930188;28;106006;-72
2022/02/03 13:42:37;;;;;;;6.15;2.35;;;;;;;17.42;22.80;100228.66;4929698;28;106131;-71
2022/02/03 13:45:07;;;;;;;4.90;2.53;;;;;;;15.61;24.57;100225.28;4929607;28;106220;-71
2022/02/03 13:47:35;;;;;;;5.22;2.20;;;;;;;14.19;26.58;100233.53;4931317;28;106475;-71
2022/02/03 13:50:27;;;;;;;7.22;2.38;;;;;;;13.12;29.14;100232.38;4929632;28;106224;-72
2022/02/03 13:53:16;;;;;;;5.13;1.90;;;;;;;12.22;31.00;100226.09;4929703;28;105999;-71
2022/02/03 14:21:08;;;;;;;7.60;2.65;;;;;;;8.74;37.78;100229.34;4928907;28;106111;-68
2022/02/03 14:29:11;;;;;;;5.53;2.10;;;;;;;8.32;39.42;100208.78;4927940;28;106018;-70
2022/02/03 14:31:37;;;;;;;8.75;2.65;;;;;;;8.21;39.60;100209.06;4928763;28;106107;-68
2022/02/03 14:34:07;;;;;;;8.05;2.70;;;;;;;8.08;39.62;100207.63;4927372;28;106474;-70
2022/02/03 14:36:34;;;;;;;9.05;2.90;;;;;;;7.97;40.10;100205.22;4928033;28;106034;-71
2022/02/03 14:41:36;;;;;;;15.57;2.67;;;;;;;7.77;41.09;100200.06;4928464;28;106117;-69
2022/02/03 14:44:02;;;;;;;7.85;2.45;;;;;;;7.65;41.50;100195.97;4928380;28;106197;-68
2022/02/03 14:46:27;;;;;;;7.85;2.53;;;;;;;7.58;42.07;100192.28;4927629;28;106516;-70
2022/02/03 14:48:53;;;;;;;8.57;2.30;;;;;;;7.47;42.10;100190.66;4928008;28;106118;-71
2022/02/03 14:51:25;;;;;;;11.23;2.60;;;;;;;7.32;42.53;100185.03;4928309;28;106017;-71
2022/02/03 14:57:59;;;;;;;6.25;2.50;;;;;;;7.21;43.13;100183.44;4927770;28;106038;-70
2022/02/03 14:59:26;;;;;;;7.32;2.15;;;;;;;7.04;44.35;100181.56;4926992;28;105983;-71
2022/02/03 15:01:51;;;;;;;7.55;2.10;;;;;;;6.97;45.27;100183.16;4927654;28;105979;-69
2022/02/03 15:04:25;;;;;;;8.25;2.22;;;;;;;6.90;44.79;100177.59;4926886;28;114195;-70
2022/02/03 15:06:57;;;;;;;8.82;2.70;;;;;;;6.80;45.48;100176.81;4929042;28;106120;-70
2022/02/03 15:12:26;;;;;;;10.73;2.97;;;;;;;6.59;46.07;100168.13;4928778;28;106194;-71
2022/02/03 15:14:51;;;;;;;13.00;3.75;;;;;;;6.55;46.46;100163.28;4929002;28;106086;-69
